SGPG weather

Pelayo Prats Gill Airstrip
BoquerĂ³n Department, Paraguay

Public forecast

Using degrees Celsius for public forecast. Weather courtesy of forecast.io.

METAR (pilot weather report)

Report is more than 6 hours old.

Retrieved 2012/07/15 00:00 UTC (7 years ago):

SGPG 150000Z 00000KT 9999 BKN027 OVC070 18/11 Q1020

TAF (pilot weather forecast)

Forecast is more than 12 hours old.

Closest forecast is Yacuiba Airport, 118.7 nm (219.9 km) WNW. Retrieved 2019/09/08 18:30 UTC (10 days ago):

TAF SLYA 081600Z 0818/0918 06010KT 9999 FEW020 SCT070 TX27/0819Z TN13 /0911Z BECMG 0900/0902 00000KT